Aviation Digital Data Service (ADDS)

Output produced by METARs form (0226 UTC 06 December 2020)
found at http://aviationweather.gov/metar/data/
 
METAR text: EGLF 060220Z AUTO 35006KT 9999 SCT026/// BKN033/// 02/00 Q0999
Conditions at: EGLF (FARNBOROUGH , GB) observed 0220 UTC 06 December 2020
Temperature: 2.0°C (36°F)
Dewpoint: 0.0°C (32°F) [RH = 87%]
Pressure (altimeter): 29.50 inches Hg (999.0 mb)
Winds: from the N (350 degrees) at 7 MPH (6 knots; 3.1 m/s)
Visibility: 6 or more miles (10+ km)
Ceiling: 3300 feet AGL
Clouds: scattered clouds at 2600 feet AGL
broken clouds at 3300 feet AGL
Weather: no significant weather observed at this time

METAR text: EGLF 060150Z AUTO 34005KT 9999 BKN027/// BKN035/// 02/01 Q0999
Conditions at: EGLF (FARNBOROUGH , GB) observed 0150 UTC 06 December 2020
Temperature: 2.0°C (36°F)
Dewpoint: 1.0°C (34°F) [RH = 93%]
Pressure (altimeter): 29.50 inches Hg (999.0 mb)
Winds: from the NNW (340 degrees) at 6 MPH (5 knots; 2.6 m/s)
Visibility: 6 or more miles (10+ km)
Ceiling: 2700 feet AGL
Clouds: broken clouds at 2700 feet AGL
broken clouds at 3500 feet AGL
Weather: no significant weather observed at this time

Forecast for: EGLF (FARNBOROUGH , GB)
Text: TAF EGLF 051659Z 0518/0520 04008KT 9999 SCT020
Forecast period: 1800 to 2000 UTC 05 December 2020
Forecast type: FROM: standard forecast or significant change
Winds: from the NE (40 degrees) at 9 MPH (8 knots; 4.1 m/s)
Visibility: 6 or more miles (10+ km)
Ceiling: at least 12,000 feet AGL
Clouds: scattered clouds at 2000 feet AGL
Weather: no significant weather forecast for this period
Text: PROB30
Forecast period: 1800 to 2000 UTC 05 December 2020
Forecast type: TEMPORARY: The following changes expected for less than half the time period
Visibility: 4 miles (7 km)
Ceiling: 1400 feet AGL
Clouds: broken clouds at 1400 feet AGL
Weather: SHRA  (rain showers)